📊 Raw Sensor Data

Showing records 38826 to 38850 of 84,936 total

ID Distance (ft) Battery V Battery A Int Temp (°F) Int Humid (%) Ext Temp (°F) Solar V RSSI SNR Time Stamp
46123 15.3 4.02 -5 71 52 70 0.00 -76 8 07/12/2025 09:00 PM
46122 15.3 3.96 -5 73 54 71 0.70 -72 8 07/12/2025 08:45 PM
46121 15.3 4.01 -10 76 55 73 4.10 -73 8 07/12/2025 08:30 PM
46120 15.3 3.97 0 80 54 75 4.50 -75 7 07/12/2025 08:15 PM
46119 15.4 4.04 0 84 54 78 4.50 -73 7 07/12/2025 08:00 PM
46118 15.4 4.05 8 88 53 82 4.50 -73 8 07/12/2025 07:45 PM
46117 15.4 4.06 0 91 52 83 4.50 -74 8 07/12/2025 07:30 PM
46116 15.4 4.07 0 93 52 86 4.60 -72 7 07/12/2025 07:15 PM
46115 15.5 4.04 29 96 51 90 4.50 -72 8 07/12/2025 07:00 PM
46114 15.4 4.08 43 97 51 90 4.50 -73 8 07/12/2025 06:45 PM
46113 15.4 4.04 0 98 50 91 5.10 -75 8 07/12/2025 06:30 PM
46112 15.5 4.01 0 98 50 91 5.10 -72 8 07/12/2025 06:15 PM
46111 15.4 4.01 0 99 50 92 5.10 -72 8 07/12/2025 06:00 PM
46110 15.4 4.01 0 100 49 92 5.10 -73 8 07/12/2025 05:45 PM
46109 15.5 4.01 0 101 49 91 5.10 -75 5 07/12/2025 05:30 PM
46108 15.5 4.13 0 102 48 94 5.10 -74 8 07/12/2025 05:15 PM
46107 15.5 4.01 5 103 47 93 5.10 -71 8 07/12/2025 05:00 PM
46106 15.5 4.01 0 103 47 95 5.10 -73 8 07/12/2025 04:45 PM
46105 15.5 4.01 0 104 46 92 5.10 -73 8 07/12/2025 04:30 PM
46104 15.5 4.01 0 105 45 97 5.10 -72 8 07/12/2025 04:15 PM
46103 15.4 4.01 5 103 45 96 5.10 -73 8 07/12/2025 04:00 PM
46102 15.5 4.11 5 103 45 92 5.10 -73 7 07/12/2025 03:45 PM
46101 15.4 4.08 0 103 44 95 5.10 -74 8 07/12/2025 03:30 PM
46100 15.5 4.01 5 103 44 96 5.10 -72 7 07/12/2025 03:15 PM
46099 15.4 4.03 0 102 43 92 5.10 -72 7 07/12/2025 03:00 PM